sensor_id;sensor_type;location;lat;lon;timestamp;pressure;altitude;pressure_sealevel;temperature;humidity
64668;BME280;51077;42.716;23.344;2024-03-22T00:01:50;95412.91;;;12.13;30.80
64668;BME280;51077;42.716;23.344;2024-03-22T00:04:15;95405.47;;;12.07;30.90
64668;BME280;51077;42.716;23.344;2024-03-22T00:06:42;95410.00;;;12.05;30.91
64668;BME280;51077;42.716;23.344;2024-03-22T00:09:08;95407.09;;;11.97;30.86
64668;BME280;51077;42.716;23.344;2024-03-22T00:11:34;95410.63;;;11.92;31.06
64668;BME280;51077;42.716;23.344;2024-03-22T00:13:59;95407.44;;;11.88;31.23
64668;BME280;51077;42.716;23.344;2024-03-22T00:16:24;95411.22;;;11.85;31.12
64668;BME280;51077;42.716;23.344;2024-03-22T00:18:50;95417.72;;;11.82;31.22
64668;BME280;51077;42.716;23.344;2024-03-22T00:21:16;95412.50;;;11.78;31.29
64668;BME280;51077;42.716;23.344;2024-03-22T00:23:41;95415.53;;;11.75;31.46
64668;BME280;51077;42.716;23.344;2024-03-22T00:26:07;95417.56;;;11.74;31.29
64668;BME280;51077;42.716;23.344;2024-03-22T00:28:32;95413.38;;;11.68;31.38
64668;BME280;51077;42.716;23.344;2024-03-22T00:30:58;95410.66;;;11.62;31.46
64668;BME280;51077;42.716;23.344;2024-03-22T00:33:23;95414.69;;;11.61;31.46
64668;BME280;51077;42.716;23.344;2024-03-22T00:35:49;95406.22;;;11.59;31.67
64668;BME280;51077;42.716;23.344;2024-03-22T00:38:14;95417.50;;;11.55;31.49
64668;BME280;51077;42.716;23.344;2024-03-22T00:40:40;95420.53;;;11.52;31.76
64668;BME280;51077;42.716;23.344;2024-03-22T00:43:06;95422.31;;;11.49;31.68
64668;BME280;51077;42.716;23.344;2024-03-22T00:45:31;95417.31;;;11.48;31.70
64668;BME280;51077;42.716;23.344;2024-03-22T00:47:57;95416.84;;;11.44;31.69
64668;BME280;51077;42.716;23.344;2024-03-22T00:50:22;95407.63;;;11.41;31.82
64668;BME280;51077;42.716;23.344;2024-03-22T00:52:49;95411.41;;;11.38;31.75
64668;BME280;51077;42.716;23.344;2024-03-22T00:55:15;95403.16;;;11.38;31.76
64668;BME280;51077;42.716;23.344;2024-03-22T00:57:40;95410.94;;;11.34;31.97
64668;BME280;51077;42.716;23.344;2024-03-22T01:00:06;95408.72;;;11.32;31.94
64668;BME280;51077;42.716;23.344;2024-03-22T01:02:32;95399.50;;;11.30;31.95
64668;BME280;51077;42.716;23.344;2024-03-22T01:04:58;95406.00;;;11.27;32.12
64668;BME280;51077;42.716;23.344;2024-03-22T01:07:23;95402.78;;;11.23;32.07
64668;BME280;51077;42.716;23.344;2024-03-22T01:09:48;95414.06;;;11.19;32.21
64668;BME280;51077;42.716;23.344;2024-03-22T01:12:14;95418.38;;;11.15;32.42
64668;BME280;51077;42.716;23.344;2024-03-22T01:14:39;95418.38;;;11.15;32.37
64668;BME280;51077;42.716;23.344;2024-03-22T01:17:05;95424.88;;;11.12;32.39
64668;BME280;51077;42.716;23.344;2024-03-22T01:19:30;95418.16;;;11.07;32.70
64668;BME280;51077;42.716;23.344;2024-03-22T01:21:55;95410.66;;;11.07;32.44
64668;BME280;51077;42.716;23.344;2024-03-22T01:24:21;95415.41;;;11.07;32.54
64668;BME280;51077;42.716;23.344;2024-03-22T01:26:46;95415.69;;;11.03;32.75
64668;BME280;51077;42.716;23.344;2024-03-22T01:29:13;95410.72;;;11.02;32.63
64668;BME280;51077;42.716;23.344;2024-03-22T01:31:39;95418.72;;;11.00;32.93
64668;BME280;51077;42.716;23.344;2024-03-22T01:34:04;95412.00;;;10.95;32.75
64668;BME280;51077;42.716;23.344;2024-03-22T01:36:30;95412.00;;;10.95;32.79
64668;BME280;51077;42.716;23.344;2024-03-22T01:38:55;95421.50;;;10.94;32.83
64668;BME280;51077;42.716;23.344;2024-03-22T01:41:21;95418.50;;;10.92;33.08
64668;BME280;51077;42.716;23.344;2024-03-22T01:43:46;95416.28;;;10.91;33.02
64668;BME280;51077;42.716;23.344;2024-03-22T01:46:11;95418.81;;;10.89;33.04
64668;BME280;51077;42.716;23.344;2024-03-22T01:48:37;95418.56;;;10.87;33.12
64668;BME280;51077;42.716;23.344;2024-03-22T01:51:03;95417.06;;;10.86;33.16
64668;BME280;51077;42.716;23.344;2024-03-22T01:53:30;95420.09;;;10.82;33.23
64668;BME280;51077;42.716;23.344;2024-03-22T01:55:56;95415.59;;;10.79;33.33
64668;BME280;51077;42.716;23.344;2024-03-22T01:58:21;95409.88;;;10.77;33.45
64668;BME280;51077;42.716;23.344;2024-03-22T02:00:47;95417.13;;;10.74;33.63
64668;BME280;51077;42.716;23.344;2024-03-22T02:03:13;95415.66;;;10.73;33.60
64668;BME280;51077;42.716;23.344;2024-03-22T02:05:38;95403.19;;;10.72;33.67
64668;BME280;51077;42.716;23.344;2024-03-22T02:08:04;95419.66;;;10.72;33.72
64668;BME280;51077;42.716;23.344;2024-03-22T02:10:29;95410.94;;;10.68;33.88
64668;BME280;51077;42.716;23.344;2024-03-22T02:12:55;95421.19;;;10.68;33.86
64668;BME280;51077;42.716;23.344;2024-03-22T02:15:20;95411.94;;;10.65;33.78
64668;BME280;51077;42.716;23.344;2024-03-22T02:17:46;95416.22;;;10.61;33.79
64668;BME280;51077;42.716;23.344;2024-03-22T02:20:11;95420.22;;;10.60;33.91
64668;BME280;51077;42.716;23.344;2024-03-22T02:22:37;95418.75;;;10.59;33.98
64668;BME280;51077;42.716;23.344;2024-03-22T02:25:03;95421.00;;;10.54;34.11
64668;BME280;51077;42.716;23.344;2024-03-22T02:27:29;95421.28;;;10.51;34.22
64668;BME280;51077;42.716;23.344;2024-03-22T02:29:54;95427.28;;;10.49;34.15
64668;BME280;51077;42.716;23.344;2024-03-22T02:32:19;95424.53;;;10.44;34.35
64668;BME280;51077;42.716;23.344;2024-03-22T02:34:45;95430.78;;;10.44;34.17
64668;BME280;51077;42.716;23.344;2024-03-22T02:37:10;95425.56;;;10.41;34.34
64668;BME280;51077;42.716;23.344;2024-03-22T02:39:35;95430.06;;;10.38;34.27
64668;BME280;51077;42.716;23.344;2024-03-22T02:42:01;95435.34;;;10.36;34.50
64668;BME280;51077;42.716;23.344;2024-03-22T02:44:26;95434.84;;;10.32;34.45
64668;BME280;51077;42.716;23.344;2024-03-22T02:46:51;95435.59;;;10.32;34.63
64668;BME280;51077;42.716;23.344;2024-03-22T02:49:17;95446.09;;;10.28;34.50
64668;BME280;51077;42.716;23.344;2024-03-22T02:51:42;95443.34;;;10.28;34.55
64668;BME280;51077;42.716;23.344;2024-03-22T02:54:08;95447.56;;;10.24;34.69
64668;BME280;51077;42.716;23.344;2024-03-22T02:56:33;95447.31;;;10.22;34.89
64668;BME280;51077;42.716;23.344;2024-03-22T02:58:58;95454.78;;;10.21;35.12
64668;BME280;51077;42.716;23.344;2024-03-22T03:01:24;95463.06;;;10.16;35.01
64668;BME280;51077;42.716;23.344;2024-03-22T03:03:49;95469.31;;;10.11;35.03
64668;BME280;51077;42.716;23.344;2024-03-22T03:06:15;95458.84;;;10.03;35.32
64668;BME280;51077;42.716;23.344;2024-03-22T03:08:41;95481.03;;;10.00;35.47
64668;BME280;51077;42.716;23.344;2024-03-22T03:11:07;95472.56;;;9.92;35.56
64668;BME280;51077;42.716;23.344;2024-03-22T03:13:32;95469.34;;;9.88;35.61
64668;BME280;51077;42.716;23.344;2024-03-22T03:15:58;95472.09;;;9.82;35.76
64668;BME280;51077;42.716;23.344;2024-03-22T03:18:23;95470.88;;;9.78;35.86
64668;BME280;51077;42.716;23.344;2024-03-22T03:20:49;95470.63;;;9.76;36.03
64668;BME280;51077;42.716;23.344;2024-03-22T03:23:14;95467.41;;;9.72;36.02
64668;BME280;51077;42.716;23.344;2024-03-22T03:25:39;95469.13;;;9.69;35.94
64668;BME280;51077;42.716;23.344;2024-03-22T03:28:05;95471.66;;;9.67;35.94
64668;BME280;51077;42.716;23.344;2024-03-22T03:30:33;95473.38;;;9.65;36.13
64668;BME280;51077;42.716;23.344;2024-03-22T03:32:58;95482.13;;;9.63;36.08
64668;BME280;51077;42.716;23.344;2024-03-22T03:35:23;95478.38;;;9.61;36.24
64668;BME280;51077;42.716;23.344;2024-03-22T03:37:50;95489.56;;;9.57;36.39
64668;BME280;51077;42.716;23.344;2024-03-22T03:40:16;95481.13;;;9.55;36.23
64668;BME280;51077;42.716;23.344;2024-03-22T03:42:41;95489.34;;;9.55;36.22
64668;BME280;51077;42.716;23.344;2024-03-22T03:45:07;95491.34;;;9.54;36.22
64668;BME280;51077;42.716;23.344;2024-03-22T03:47:32;95493.06;;;9.52;36.39
64668;BME280;51077;42.716;23.344;2024-03-22T03:49:58;95490.59;;;9.54;36.19
64668;BME280;51077;42.716;23.344;2024-03-22T03:52:24;95490.84;;;9.50;36.50
64668;BME280;51077;42.716;23.344;2024-03-22T03:54:50;95495.81;;;9.52;36.36
64668;BME280;51077;42.716;23.344;2024-03-22T03:57:15;95491.59;;;9.51;36.36
64668;BME280;51077;42.716;23.344;2024-03-22T03:59:40;95498.06;;;9.48;36.34
64668;BME280;51077;42.716;23.344;2024-03-22T04:02:06;95496.06;;;9.48;36.37
64668;BME280;51077;42.716;23.344;2024-03-22T04:04:31;95498.56;;;9.46;36.34
64668;BME280;51077;42.716;23.344;2024-03-22T04:06:56;95502.03;;;9.47;36.39
64668;BME280;51077;42.716;23.344;2024-03-22T04:09:22;95503.31;;;9.46;36.38
64668;BME280;51077;42.716;23.344;2024-03-22T04:11:47;95503.78;;;9.44;36.45
64668;BME280;51077;42.716;23.344;2024-03-22T04:14:13;95505.28;;;9.40;36.51
64668;BME280;51077;42.716;23.344;2024-03-22T04:16:38;95506.53;;;9.39;36.20
64668;BME280;51077;42.716;23.344;2024-03-22T04:19:04;95500.53;;;9.40;36.53
64668;BME280;51077;42.716;23.344;2024-03-22T04:21:29;95506.03;;;9.40;36.55
64668;BME280;51077;42.716;23.344;2024-03-22T04:23:54;95517.25;;;9.59;45.22
64668;BME280;51077;42.716;23.344;2024-03-22T04:26:20;95515.50;;;9.84;53.22
64668;BME280;51077;42.716;23.344;2024-03-22T04:28:46;95520.91;;;10.01;54.04
64668;BME280;51077;42.716;23.344;2024-03-22T04:31:12;95524.88;;;10.17;55.34
64668;BME280;51077;42.716;23.344;2024-03-22T04:33:37;95522.41;;;10.13;54.83
64668;BME280;51077;42.716;23.344;2024-03-22T04:36:03;95524.66;;;10.09;53.62
64668;BME280;51077;42.716;23.344;2024-03-22T04:38:29;95531.88;;;10.12;52.52
64668;BME280;51077;42.716;23.344;2024-03-22T04:40:56;95534.84;;;10.20;51.47
64668;BME280;51077;42.716;23.344;2024-03-22T04:43:22;95529.63;;;10.33;50.41
64668;BME280;51077;42.716;23.344;2024-03-22T04:45:49;95536.28;;;10.49;49.36
64668;BME280;51077;42.716;23.344;2024-03-22T04:48:17;95535.72;;;10.62;48.05
64668;BME280;51077;42.716;23.344;2024-03-22T04:50:44;95541.66;;;10.77;47.24
64668;BME280;51077;42.716;23.344;2024-03-22T04:53:10;95543.34;;;10.91;46.27
64668;BME280;51077;42.716;23.344;2024-03-22T04:55:35;95547.03;;;10.99;45.90
64668;BME280;51077;42.716;23.344;2024-03-22T04:58:01;95533.59;;;10.96;45.02
64668;BME280;51077;42.716;23.344;2024-03-22T05:00:29;95546.88;;;10.86;44.84
64668;BME280;51077;42.716;23.344;2024-03-22T05:02:55;95544.94;;;10.75;44.92
64668;BME280;51077;42.716;23.344;2024-03-22T05:05:20;95545.19;;;10.66;44.83
64668;BME280;51077;42.716;23.344;2024-03-22T05:07:46;95551.97;;;10.60;44.59
64668;BME280;51077;42.716;23.344;2024-03-22T05:10:12;95554.47;;;10.57;44.44
64668;BME280;51077;42.716;23.344;2024-03-22T05:12:38;95550.47;;;10.59;44.24
64668;BME280;51077;42.716;23.344;2024-03-22T05:15:06;95549.47;;;10.62;43.94
64668;BME280;51077;42.716;23.344;2024-03-22T05:17:31;95557.19;;;10.69;43.56
64668;BME280;51077;42.716;23.344;2024-03-22T05:19:58;95551.91;;;10.76;43.27
64668;BME280;51077;42.716;23.344;2024-03-22T05:22:23;95546.38;;;10.82;42.95
64668;BME280;51077;42.716;23.344;2024-03-22T05:24:49;95557.59;;;10.90;42.75
64668;BME280;51077;42.716;23.344;2024-03-22T05:27:14;95562.03;;;10.98;42.25
64668;BME280;51077;42.716;23.344;2024-03-22T05:29:40;95569.72;;;11.05;41.88
64668;BME280;51077;42.716;23.344;2024-03-22T05:32:05;95566.94;;;11.17;41.49
64668;BME280;51077;42.716;23.344;2024-03-22T05:34:40;95561.59;;;11.30;41.31
64668;BME280;51077;42.716;23.344;2024-03-22T05:37:05;95573.50;;;11.44;40.90
64668;BME280;51077;42.716;23.344;2024-03-22T05:39:31;95574.66;;;11.60;40.56
64668;BME280;51077;42.716;23.344;2024-03-22T05:41:56;95569.78;;;11.77;40.11
64668;BME280;51077;42.716;23.344;2024-03-22T05:44:22;95578.94;;;11.91;39.68
64668;BME280;51077;42.716;23.344;2024-03-22T05:46:47;95580.53;;;12.11;39.32
64668;BME280;51077;42.716;23.344;2024-03-22T05:49:13;95581.34;;;12.30;38.82
64668;BME280;51077;42.716;23.344;2024-03-22T05:51:38;95577.16;;;12.48;38.50
64668;BME280;51077;42.716;23.344;2024-03-22T05:54:04;95578.22;;;12.64;37.93
64668;BME280;51077;42.716;23.344;2024-03-22T05:56:29;95576.53;;;12.79;37.77
64668;BME280;51077;42.716;23.344;2024-03-22T05:58:55;95579.09;;;12.96;37.36
64668;BME280;51077;42.716;23.344;2024-03-22T06:01:20;95578.59;;;13.17;36.98
64668;BME280;51077;42.716;23.344;2024-03-22T06:03:46;95587.09;;;13.38;36.45
64668;BME280;51077;42.716;23.344;2024-03-22T06:06:11;95583.28;;;13.60;36.08
64668;BME280;51077;42.716;23.344;2024-03-22T06:08:37;95588.47;;;13.82;35.65
64668;BME280;51077;42.716;23.344;2024-03-22T06:11:05;95583.31;;;14.05;35.26
64668;BME280;51077;42.716;23.344;2024-03-22T06:13:32;95579.66;;;14.29;35.01
64668;BME280;51077;42.716;23.344;2024-03-22T06:15:58;95582.25;;;14.53;34.48
64668;BME280;51077;42.716;23.344;2024-03-22T06:18:23;95580.56;;;14.77;34.30
64668;BME280;51077;42.716;23.344;2024-03-22T06:20:48;95586.81;;;15.04;33.90
64668;BME280;51077;42.716;23.344;2024-03-22T06:23:14;95582.50;;;15.29;33.49
64668;BME280;51077;42.716;23.344;2024-03-22T06:25:39;95588.69;;;15.56;33.01
64668;BME280;51077;42.716;23.344;2024-03-22T06:28:05;95590.09;;;15.84;32.53
64668;BME280;51077;42.716;23.344;2024-03-22T06:30:30;95591.47;;;16.12;32.08
64668;BME280;51077;42.716;23.344;2024-03-22T06:32:56;95596.09;;;16.38;31.95
64668;BME280;51077;42.716;23.344;2024-03-22T06:35:21;95584.09;;;16.64;31.41
64668;BME280;51077;42.716;23.344;2024-03-22T06:37:47;95589.63;;;16.92;31.16
64668;BME280;51077;42.716;23.344;2024-03-22T06:40:14;95589.94;;;17.17;30.70
64668;BME280;51077;42.716;23.344;2024-03-22T06:42:39;95590.97;;;17.43;30.17
64668;BME280;51077;42.716;23.344;2024-03-22T06:45:05;95591.59;;;17.72;29.82
64668;BME280;51077;42.716;23.344;2024-03-22T06:47:31;95587.25;;;17.99;29.31
64668;BME280;51077;42.716;23.344;2024-03-22T06:49:56;95598.00;;;18.26;29.23
64668;BME280;51077;42.716;23.344;2024-03-22T06:52:23;95600.56;;;18.54;28.71
64668;BME280;51077;42.716;23.344;2024-03-22T06:54:48;95612.25;;;18.83;28.50
64668;BME280;51077;42.716;23.344;2024-03-22T06:57:14;95601.25;;;19.08;28.17
64668;BME280;51077;42.716;23.344;2024-03-22T06:59:39;95616.38;;;19.38;27.80
64668;BME280;51077;42.716;23.344;2024-03-22T07:02:05;95621.47;;;19.65;27.38
64668;BME280;51077;42.716;23.344;2024-03-22T07:04:30;95618.75;;;19.90;27.44
64668;BME280;51077;42.716;23.344;2024-03-22T07:06:55;95618.94;;;20.17;26.87
64668;BME280;51077;42.716;23.344;2024-03-22T07:09:21;95609.09;;;20.41;26.51
64668;BME280;51077;42.716;23.344;2024-03-22T07:11:46;95611.16;;;20.65;26.19
64668;BME280;51077;42.716;23.344;2024-03-22T07:14:12;95613.47;;;20.94;26.19
64668;BME280;51077;42.716;23.344;2024-03-22T07:16:37;95617.66;;;21.20;25.81
64668;BME280;51077;42.716;23.344;2024-03-22T07:19:03;95617.03;;;21.46;25.36
64668;BME280;51077;42.716;23.344;2024-03-22T07:21:29;95616.91;;;21.71;25.15
64668;BME280;51077;42.716;23.344;2024-03-22T07:23:54;95623.81;;;21.97;25.16
64668;BME280;51077;42.716;23.344;2024-03-22T07:26:20;95616.75;;;22.23;24.77
64668;BME280;51077;42.716;23.344;2024-03-22T07:28:45;95610.66;;;22.44;24.24
64668;BME280;51077;42.716;23.344;2024-03-22T07:31:11;95620.59;;;22.65;24.07
64668;BME280;51077;42.716;23.344;2024-03-22T07:33:36;95615.03;;;22.84;24.01
64668;BME280;51077;42.716;23.344;2024-03-22T07:36:02;95610.97;;;23.04;23.67
64668;BME280;51077;42.716;23.344;2024-03-22T07:38:28;95609.06;;;23.26;23.19
64668;BME280;51077;42.716;23.344;2024-03-22T07:40:54;95618.94;;;23.47;23.54
64668;BME280;51077;42.716;23.344;2024-03-22T07:43:19;95614.06;;;23.67;23.20
64668;BME280;51077;42.716;23.344;2024-03-22T07:45:45;95611.09;;;23.84;23.07
64668;BME280;51077;42.716;23.344;2024-03-22T07:48:10;95603.81;;;24.00;22.57
64668;BME280;51077;42.716;23.344;2024-03-22T07:50:36;95615.56;;;24.18;22.60
64668;BME280;51077;42.716;23.344;2024-03-22T07:53:02;95605.31;;;24.32;22.59
64668;BME280;51077;42.716;23.344;2024-03-22T07:55:27;95611.47;;;24.50;22.21
64668;BME280;51077;42.716;23.344;2024-03-22T07:57:52;95603.16;;;24.62;22.18
64668;BME280;51077;42.716;23.344;2024-03-22T08:00:18;95611.31;;;24.79;21.96
64668;BME280;51077;42.716;23.344;2024-03-22T08:02:44;95610.06;;;24.92;22.12
64668;BME280;51077;42.716;23.344;2024-03-22T08:05:09;95613.97;;;25.09;21.83
64668;BME280;51077;42.716;23.344;2024-03-22T08:07:34;95617.09;;;25.24;21.54
64668;BME280;51077;42.716;23.344;2024-03-22T08:10:00;95610.47;;;25.41;21.34
64668;BME280;51077;42.716;23.344;2024-03-22T08:12:27;95606.50;;;25.56;21.32
64668;BME280;51077;42.716;23.344;2024-03-22T08:14:53;95609.59;;;25.72;21.36
64668;BME280;51077;42.716;23.344;2024-03-22T08:17:18;95604.41;;;25.90;21.43
64668;BME280;51077;42.716;23.344;2024-03-22T08:19:44;95602.75;;;26.08;20.79
64668;BME280;51077;42.716;23.344;2024-03-22T08:22:10;95602.16;;;26.21;21.01
64668;BME280;51077;42.716;23.344;2024-03-22T08:24:35;95603.75;;;26.36;20.78
64668;BME280;51077;42.716;23.344;2024-03-22T08:27:01;95596.06;;;26.48;20.35
64668;BME280;51077;42.716;23.344;2024-03-22T08:29:26;95590.66;;;26.64;20.33
64668;BME280;51077;42.716;23.344;2024-03-22T08:31:51;95593.72;;;26.80;20.00
64668;BME280;51077;42.716;23.344;2024-03-22T08:34:18;95589.63;;;26.95;20.38
64668;BME280;51077;42.716;23.344;2024-03-22T08:36:43;95598.34;;;27.11;20.18
64668;BME280;51077;42.716;23.344;2024-03-22T08:39:09;95589.34;;;27.26;19.69
64668;BME280;51077;42.716;23.344;2024-03-22T08:41:39;95587.44;;;27.42;19.67
64668;BME280;51077;42.716;23.344;2024-03-22T08:44:04;95590.44;;;27.58;19.60
64668;BME280;51077;42.716;23.344;2024-03-22T08:46:29;95586.84;;;27.69;19.27
64668;BME280;51077;42.716;23.344;2024-03-22T08:48:57;95582.63;;;27.82;19.14
64668;BME280;51077;42.716;23.344;2024-03-22T08:51:22;95593.00;;;27.91;19.14
64668;BME280;51077;42.716;23.344;2024-03-22T08:53:48;95595.75;;;28.03;18.76
64668;BME280;51077;42.716;23.344;2024-03-22T08:56:13;95592.84;;;28.15;18.62
64668;BME280;51077;42.716;23.344;2024-03-22T08:58:38;95594.88;;;28.26;18.77
64668;BME280;51077;42.716;23.344;2024-03-22T09:01:05;95593.53;;;28.41;18.62
64668;BME280;51077;42.716;23.344;2024-03-22T09:03:31;95590.50;;;28.50;18.26
64668;BME280;51077;42.716;23.344;2024-03-22T09:05:56;95589.56;;;28.60;18.23
64668;BME280;51077;42.716;23.344;2024-03-22T09:08:22;95588.75;;;28.71;18.10
64668;BME280;51077;42.716;23.344;2024-03-22T09:10:48;95585.06;;;28.82;17.94
64668;BME280;51077;42.716;23.344;2024-03-22T09:13:13;95582.38;;;28.98;17.85
64668;BME280;51077;42.716;23.344;2024-03-22T09:15:39;95571.25;;;29.16;17.54
64668;BME280;51077;42.716;23.344;2024-03-22T09:18:05;95581.97;;;29.33;17.42
64668;BME280;51077;42.716;23.344;2024-03-22T09:20:30;95573.44;;;29.47;17.48
64668;BME280;51077;42.716;23.344;2024-03-22T09:22:56;95572.81;;;29.62;17.22
64668;BME280;51077;42.716;23.344;2024-03-22T09:25:23;95574.31;;;29.79;17.13
64668;BME280;51077;42.716;23.344;2024-03-22T09:27:48;95571.41;;;29.93;17.06
64668;BME280;51077;42.716;23.344;2024-03-22T09:30:14;95568.13;;;29.98;16.62
64668;BME280;51077;42.716;23.344;2024-03-22T09:32:40;95563.56;;;30.07;16.80
64668;BME280;51077;42.716;23.344;2024-03-22T09:35:06;95559.75;;;30.16;16.29
64668;BME280;51077;42.716;23.344;2024-03-22T09:37:31;95565.41;;;30.16;16.18
64668;BME280;51077;42.716;23.344;2024-03-22T09:39:58;95554.81;;;30.17;16.40
64668;BME280;51077;42.716;23.344;2024-03-22T09:42:25;95563.97;;;30.15;15.71
64668;BME280;51077;42.716;23.344;2024-03-22T09:44:51;95559.84;;;30.18;15.79
64668;BME280;51077;42.716;23.344;2024-03-22T09:47:18;95561.69;;;30.27;15.73
64668;BME280;51077;42.716;23.344;2024-03-22T09:49:46;95559.56;;;30.44;15.88
64668;BME280;51077;42.716;23.344;2024-03-22T09:52:13;95553.81;;;30.58;15.64
64668;BME280;51077;42.716;23.344;2024-03-22T09:54:43;95553.06;;;30.73;15.74
64668;BME280;51077;42.716;23.344;2024-03-22T09:57:18;95555.13;;;30.88;15.74
64668;BME280;51077;42.716;23.344;2024-03-22T09:59:45;95550.22;;;31.07;15.78
64668;BME280;51077;42.716;23.344;2024-03-22T10:02:12;95544.56;;;31.24;15.43
64668;BME280;51077;42.716;23.344;2024-03-22T10:04:38;95534.66;;;31.41;15.48
64668;BME280;51077;42.716;23.344;2024-03-22T10:07:04;95545.31;;;31.61;15.31
64668;BME280;51077;42.716;23.344;2024-03-22T10:09:30;95543.22;;;31.79;14.96
64668;BME280;51077;42.716;23.344;2024-03-22T10:11:56;95544.59;;;31.96;14.85
64668;BME280;51077;42.716;23.344;2024-03-22T10:14:22;95538.56;;;32.06;14.76
64668;BME280;51077;42.716;23.344;2024-03-22T10:16:53;95539.19;;;32.22;14.57
64668;BME280;51077;42.716;23.344;2024-03-22T10:19:22;95530.94;;;32.30;14.40
64668;BME280;51077;42.716;23.344;2024-03-22T10:22:02;95527.69;;;32.38;14.60
64668;BME280;51077;42.716;23.344;2024-03-22T10:24:28;95528.41;;;32.38;14.30
64668;BME280;51077;42.716;23.344;2024-03-22T10:26:54;95518.78;;;32.47;14.60
64668;BME280;51077;42.716;23.344;2024-03-22T10:29:20;95516.97;;;32.56;14.44
64668;BME280;51077;42.716;23.344;2024-03-22T10:31:47;95515.81;;;32.63;14.37
64668;BME280;51077;42.716;23.344;2024-03-22T10:34:14;95512.72;;;32.77;14.05
64668;BME280;51077;42.716;23.344;2024-03-22T10:36:39;95511.91;;;32.94;14.20
64668;BME280;51077;42.716;23.344;2024-03-22T10:39:05;95506.38;;;32.98;14.10
64668;BME280;51077;42.716;23.344;2024-03-22T10:41:31;95509.53;;;33.09;13.79
64668;BME280;51077;42.716;23.344;2024-03-22T10:43:57;95506.19;;;33.14;13.56
64668;BME280;51077;42.716;23.344;2024-03-22T10:46:29;95498.69;;;33.25;13.68
64668;BME280;51077;42.716;23.344;2024-03-22T10:48:54;95498.22;;;33.33;13.43
64668;BME280;51077;42.716;23.344;2024-03-22T10:51:21;95490.97;;;33.27;13.33
64668;BME280;51077;42.716;23.344;2024-03-22T10:53:49;95481.13;;;33.31;13.46
64668;BME280;51077;42.716;23.344;2024-03-22T10:56:16;95497.56;;;33.34;13.21
64668;BME280;51077;42.716;23.344;2024-03-22T10:58:41;95483.41;;;33.36;13.19
64668;BME280;51077;42.716;23.344;2024-03-22T11:01:21;95477.28;;;33.44;13.20
64668;BME280;51077;42.716;23.344;2024-03-22T11:03:47;95477.50;;;33.52;13.26
64668;BME280;51077;42.716;23.344;2024-03-22T11:06:12;95477.41;;;33.72;13.21
64668;BME280;51077;42.716;23.344;2024-03-22T11:08:37;95472.81;;;33.85;12.87
64668;BME280;51077;42.716;23.344;2024-03-22T11:11:12;95466.69;;;33.94;12.92
64668;BME280;51077;42.716;23.344;2024-03-22T11:13:40;95470.94;;;33.93;12.71
64668;BME280;51077;42.716;23.344;2024-03-22T11:16:06;95472.22;;;33.88;12.70
64668;BME280;51077;42.716;23.344;2024-03-22T11:18:33;95474.50;;;33.94;12.47
64668;BME280;51077;42.716;23.344;2024-03-22T11:20:59;95455.38;;;33.96;12.66
64668;BME280;51077;42.716;23.344;2024-03-22T11:23:25;95454.81;;;34.02;12.67
64668;BME280;51077;42.716;23.344;2024-03-22T11:25:50;95461.53;;;34.13;12.57
64668;BME280;51077;42.716;23.344;2024-03-22T11:28:16;95461.34;;;34.07;12.48
64668;BME280;51077;42.716;23.344;2024-03-22T11:30:41;95449.53;;;33.68;12.74
64668;BME280;51077;42.716;23.344;2024-03-22T11:33:07;95450.59;;;33.33;13.01
64668;BME280;51077;42.716;23.344;2024-03-22T11:35:33;95451.78;;;33.26;13.01
64668;BME280;51077;42.716;23.344;2024-03-22T11:37:59;95450.94;;;33.21;12.64
64668;BME280;51077;42.716;23.344;2024-03-22T11:40:28;95452.16;;;33.14;12.77
64668;BME280;51077;42.716;23.344;2024-03-22T11:42:56;95444.25;;;33.13;12.49
64668;BME280;51077;42.716;23.344;2024-03-22T11:45:23;95444.88;;;33.09;12.69
64668;BME280;51077;42.716;23.344;2024-03-22T11:47:49;95445.91;;;33.20;12.74
64668;BME280;51077;42.716;23.344;2024-03-22T11:50:15;95439.22;;;33.33;12.66
64668;BME280;51077;42.716;23.344;2024-03-22T11:52:41;95434.09;;;33.51;12.40
64668;BME280;51077;42.716;23.344;2024-03-22T11:55:07;95428.91;;;33.68;12.48
64668;BME280;51077;42.716;23.344;2024-03-22T11:57:32;95429.25;;;33.80;12.29
64668;BME280;51077;42.716;23.344;2024-03-22T12:00:03;95422.28;;;33.85;12.26
64668;BME280;51077;42.716;23.344;2024-03-22T12:02:31;95416.34;;;34.01;12.49
64668;BME280;51077;42.716;23.344;2024-03-22T12:04:57;95411.72;;;34.14;12.43
64668;BME280;51077;42.716;23.344;2024-03-22T12:07:23;95409.34;;;34.32;12.14
64668;BME280;51077;42.716;23.344;2024-03-22T12:09:49;95410.69;;;34.29;12.16
64668;BME280;51077;42.716;23.344;2024-03-22T12:12:14;95410.19;;;34.37;12.45
64668;BME280;51077;42.716;23.344;2024-03-22T12:14:40;95410.91;;;34.37;12.05
64668;BME280;51077;42.716;23.344;2024-03-22T12:17:06;95397.56;;;34.44;11.81
64668;BME280;51077;42.716;23.344;2024-03-22T12:19:32;95398.31;;;34.46;12.06
64668;BME280;51077;42.716;23.344;2024-03-22T12:21:59;95389.97;;;34.53;11.98
64668;BME280;51077;42.716;23.344;2024-03-22T12:24:24;95386.91;;;34.46;11.82
64668;BME280;51077;42.716;23.344;2024-03-22T12:26:50;95379.06;;;34.45;11.91
64668;BME280;51077;42.716;23.344;2024-03-22T12:29:16;95389.06;;;34.46;12.01
64668;BME280;51077;42.716;23.344;2024-03-22T12:31:42;95384.47;;;34.35;11.94
64668;BME280;51077;42.716;23.344;2024-03-22T12:34:08;95385.94;;;34.36;11.51
64668;BME280;51077;42.716;23.344;2024-03-22T12:36:33;95376.59;;;34.33;11.89
64668;BME280;51077;42.716;23.344;2024-03-22T12:38:59;95379.41;;;34.31;11.83
64668;BME280;51077;42.716;23.344;2024-03-22T12:41:25;95380.03;;;34.28;11.99
64668;BME280;51077;42.716;23.344;2024-03-22T12:43:50;95365.56;;;33.93;11.84